Nyk Diana — 3EOS4 — position and weather

sailwx.info

Track history (hours):
 
Tides and Currents Weather Stations Pressure Air Temp Water Temp Dewpoint Dewpoint Depression Visibility Wind Speed Wind Dir Waves Ship Positions

Nyk Diana

Last reported at 2017-Dec-09 14:29 UTC. Time now 2017-Dec-17 17:22 UTC.
Position N 35°16' E 140°44'.
Warning: this ship's position is 8 days out of date.

Length 294 m; draft 10.5 m.

Type: Ship. MMSI: 372319000.

Date/timePositionNaut miles runAvg speedWind from/ knotsBaromVisibWave heightAir tempDewpointWater temp
2017-Dec-09 14:29N 35°16' E 140°44'1621.7
2017-Dec-09 13:45N 35°04' E 140°31'623.1
2017-Dec-09 13:30N 35°01' E 140°25'1222.7
2017-Dec-09 12:58N 34°55' E 140°12'1020.9
2017-Dec-09 12:30N 34°51' E 140°01'1020.8
2017-Dec-09 12:01N 34°50' E 139°49'1020.5
2017-Dec-09 11:30N 34°58' E 139°42'918.8
2017-Dec-09 11:00N 35°07' E 139°45'612.1
2017-Dec-09 10:30N 35°13' E 139°46'612.1
2017-Dec-09 10:01N 35°19' E 139°43'611.8
2017-Dec-09 09:30N 35°25' E 139°43'715.0
2017-Dec-09 09:01N 35°29' E 139°51'612.7
2017-Dec-09 08:30N 35°35' E 139°47'1 2.3
2017-Dec-09 08:00N 35°36' E 139°46'0 0.0
2017-Dec-09 07:20N 35°36' E 139°46'0 0.0
2017-Dec-09 05:14N 35°36' E 139°46'0 0.0
2017-Dec-09 04:50N 35°36' E 139°46'0 0.0
2017-Dec-09 04:26N 35°36' E 139°46'0 0.0
2017-Dec-09 03:59N 35°36' E 139°46'0 0.0
2017-Dec-09 03:29N 35°36' E 139°46'0 0.0
2017-Dec-09 02:59N 35°36' E 139°46'0 0.0
2017-Dec-09 02:29N 35°36' E 139°46'0 0.0
2017-Dec-09 01:56N 35°36' E 139°46'0 0.0
2017-Dec-09 01:29N 35°36' E 139°46'0 0.0
2017-Dec-09 00:53N 35°36' E 139°46'0 0.0
2017-Dec-09 00:20N 35°36' E 139°46'0 0.0
2017-Dec-08 23:56N 35°36' E 139°46'0 0.0
2017-Dec-08 23:26N 35°36' E 139°46'0 0.0
2017-Dec-08 22:59N 35°36' E 139°46'0 0.0
2017-Dec-08 22:29N 35°36' E 139°46'2 3.9
2017-Dec-08 22:00N 35°35' E 139°48'510.8
2017-Dec-08 21:30N 35°31' E 139°53'613.0
2017-Dec-08 21:01N 35°26' E 139°48'612.8
2017-Dec-08 20:30N 35°20' E 139°44'612.3
2017-Dec-08 20:01N 35°14' E 139°47'510.8
2017-Dec-08 19:30N 35°09' E 139°46'5 9.7
2017-Dec-08 19:01N 35°04' E 139°43'815.3
2017-Dec-08 18:31N 34°57' E 139°40'815.9
2017-Dec-08 18:00N 34°49' E 139°38'918.1
2017-Dec-08 17:30N 34°40' E 139°37'1019.2
2017-Dec-08 17:00N 34°37' E 139°26'1020.5
2017-Dec-08 16:30N 34°34' E 139°14'1020.2
2017-Dec-08 16:00N 34°30' E 139°03'1019.4
2017-Dec-08 15:30N 34°28' E 138°51'1019.0
2017-Dec-08 14:59N 34°28' E 138°39'1019.3
2017-Dec-08 14:29N 34°28' E 138°28'1019.6
2017-Dec-08 13:59N 34°28' E 138°16'919.2
2017-Dec-08 13:30N 34°28' E 138°04'1019.2
2017-Dec-08 13:00N 34°28' E 137°53'1019.2
2017-Dec-08 12:30N 34°28' E 137°41'1018.7
2017-Dec-08 11:58N 34°29' E 137°29'919.0
2017-Dec-08 11:30N 34°29' E 137°18'918.0
2017-Dec-08 11:00N 34°29' E 137°07'612.3
2017-Dec-08 10:30N 34°33' E 137°01'713.1
2017-Dec-08 10:00N 34°37' E 136°55'1019.5
2017-Dec-08 09:30N 34°44' E 136°47'919.0
2017-Dec-08 09:01N 34°54' E 136°46'714.9
2017-Dec-08 08:30N 35°00' E 136°50'1 2.7
2017-Dec-08 08:00N 35°02' E 136°49'0 0.0
2017-Dec-08 07:26N 35°02' E 136°49'0 0.0
2017-Dec-08 06:56N 35°02' E 136°49'0 0.0
2017-Dec-08 06:26N 35°02' E 136°49'0 0.0
2017-Dec-08 05:56N 35°02' E 136°49'0 0.0
2017-Dec-08 05:26N 35°02' E 136°49'0 0.0
2017-Dec-08 04:56N 35°02' E 136°49'0 0.0
2017-Dec-08 04:26N 35°02' E 136°49'0 0.0
2017-Dec-08 03:56N 35°02' E 136°49'0 0.0
2017-Dec-08 03:26N 35°02' E 136°49'0 0.0
2017-Dec-08 02:59N 35°02' E 136°49'0 0.0
2017-Dec-08 02:29N 35°02' E 136°49'0 0.0
2017-Dec-08 01:50N 35°02' E 136°49'0 0.0
2017-Dec-08 01:26N 35°02' E 136°49'0 0.0
2017-Dec-08 00:56N 35°02' E 136°49'0 0.0
2017-Dec-08 00:29N 35°02' E 136°49'0 0.0
2017-Dec-07 23:56N 35°02' E 136°49'0 0.0
2017-Dec-07 23:14N 35°02' E 136°49'0 0.0
2017-Dec-07 22:56N 35°02' E 136°49'0 0.2
2017-Dec-07 22:30N 35°02' E 136°50'3 6.2
2017-Dec-07 22:00N 34°59' E 136°48'611.8
2017-Dec-07 21:30N 34°54' E 136°44'0 0.2
2017-Dec-07 21:00N 34°54' E 136°44'0 0.0
2017-Dec-07 20:30N 34°54' E 136°44'0 0.0
2017-Dec-07 20:00N 34°54' E 136°44'0 0.1
2017-Dec-07 19:30N 34°54' E 136°44'0 0.1
2017-Dec-07 19:00N 34°54' E 136°44'0 0.1
2017-Dec-07 18:30N 34°54' E 136°44'0 0.0
2017-Dec-07 18:00N 34°54' E 136°44'0 0.0
2017-Dec-07 17:30N 34°54' E 136°44'0 0.0
2017-Dec-07 17:01N 34°54' E 136°44'0 0.0
2017-Dec-07 16:30N 34°54' E 136°44'0 0.0
2017-Dec-07 16:00N 34°54' E 136°44'0 0.1
2017-Dec-07 15:30N 34°54' E 136°44'0 0.0
2017-Dec-07 15:00N 34°54' E 136°44'0 0.0
2017-Dec-07 14:30N 34°54' E 136°44'0 0.0
2017-Dec-07 14:01N 34°54' E 136°44'0 0.0
2017-Dec-07 13:30N 34°54' E 136°44'0 0.1
2017-Dec-07 13:00N 34°54' E 136°44'0 0.2
2017-Dec-07 12:30N 34°54' E 136°44'0 0.2
2017-Dec-07 12:00N 34°54' E 136°44'0 0.2
2017-Dec-07 11:30N 34°54' E 136°44'0 0.1
2017-Dec-07 11:00N 34°54' E 136°44'0 0.1
2017-Dec-07 10:30N 34°54' E 136°44'0 0.0
2017-Dec-07 10:00N 34°54' E 136°44'0 0.1
2017-Dec-07 09:30N 34°54' E 136°44'0 0.1
2017-Dec-07 09:00N 34°54' E 136°44'0 0.1
2017-Dec-07 08:30N 34°54' E 136°44'0 0.1
2017-Dec-07 08:00N 34°54' E 136°44'0 0.0
2017-Dec-07 07:30N 34°54' E 136°44'0 0.0
2017-Dec-07 07:00N 34°54' E 136°44'0 0.0
2017-Dec-07 06:30N 34°54' E 136°44'0 0.1
2017-Dec-07 06:00N 34°54' E 136°44'0 0.0
2017-Dec-07 05:30N 34°54' E 136°44'0 0.0
2017-Dec-07 05:00N 34°54' E 136°44'0 0.0
2017-Dec-07 04:30N 34°54' E 136°44'0 0.0
2017-Dec-07 04:00N 34°54' E 136°44'0 0.0
2017-Dec-07 03:31N 34°54' E 136°44'0 0.0
2017-Dec-07 03:00N 34°54' E 136°44'0 0.0
2017-Dec-07 02:30N 34°54' E 136°44'0 0.0
2017-Dec-07 02:00N 34°54' E 136°44'0 0.0
2017-Dec-07 01:30N 34°54' E 136°44'0 0.2
2017-Dec-07 01:00N 34°54' E 136°44'2 4.9
2017-Dec-07 00:30N 34°52' E 136°44'612.9
2017-Dec-07 00:00N 34°45' E 136°45'815.5
2017-Dec-06 23:30N 34°40' E 136°52'916.0
2017-Dec-06 22:58N 34°34' E 137°00'613.0
2017-Dec-06 22:30N 34°29' E 137°04'4 6.8
2017-Dec-06 21:57N 34°25' E 137°04'3 5.7
2017-Dec-06 21:28N 34°23' E 137°05'  
2017-Dec-04 08:20N 34°30' E 137°04'411.6
2017-Dec-04 08:00N 34°33' E 137°01'612.8
2017-Dec-04 07:30N 34°37' E 136°55'918.4
2017-Dec-04 07:00N 34°44' E 136°47'918.7
2017-Dec-04 06:30N 34°53' E 136°45'815.6
2017-Dec-04 06:00N 34°60' E 136°49'2 3.3
2017-Dec-04 05:30N 35°02' E 136°49'0 0.0
2017-Dec-04 04:55N 35°02' E 136°49'0 0.0
2017-Dec-04 04:25N 35°02' E 136°49'0 0.0
2017-Dec-04 03:55N 35°02' E 136°49'0 0.0
2017-Dec-04 03:25N 35°02' E 136°49'0 0.0
2017-Dec-04 02:55N 35°02' E 136°49'0 0.0
2017-Dec-04 02:25N 35°02' E 136°49'0 0.0
2017-Dec-04 01:58N 35°02' E 136°49'0 0.0
2017-Dec-04 01:25N 35°02' E 136°49'0 0.0
2017-Dec-04 00:58N 35°02' E 136°49'0 0.0
2017-Dec-04 00:28N 35°02' E 136°49'0 0.0
2017-Dec-03 23:55N 35°02' E 136°49'0 0.0
2017-Dec-03 23:28N 35°02' E 136°49'0 0.0
2017-Dec-03 22:55N 35°02' E 136°49'0 0.0
2017-Dec-03 22:30N 35°02' E 136°49'1 2.3
2017-Dec-03 22:00N 35°01' E 136°50'510.1
2017-Dec-03 21:30N 34°56' E 136°47'816.6
2017-Dec-03 21:00N 34°48' E 136°47'918.0
2017-Dec-03 20:29N 34°40' E 136°53'915.6
2017-Dec-03 19:56N 34°34' E 137°00'510.8
2017-Dec-03 19:30N 34°31' E 137°05'5 8.9
2017-Dec-03 19:00N 34°29' E 137°10'5 9.2
2017-Dec-03 18:30N 34°29' E 137°15'612.0
2017-Dec-03 17:59N 34°29' E 137°23'4015.4
2017-Dec-03 15:24N 34°29' E 138°11'716.4
2017-Dec-03 15:00N 34°29' E 138°19'917.2
2017-Dec-03 14:29N 34°30' E 138°30'917.5
2017-Dec-03 14:00N 34°30' E 138°40'917.6
2017-Dec-03 13:30N 34°30' E 138°51'917.5
2017-Dec-03 13:00N 34°30' E 139°01'917.6
2017-Dec-03 12:29N 34°33' E 139°12'715.4
2017-Dec-03 12:01N 34°36' E 139°20'815.3
2017-Dec-03 11:27N 34°40' E 139°29'818.0
2017-Dec-03 11:00N 34°47' E 139°33'918.6
2017-Dec-03 10:31N 34°55' E 139°38'918.0
2017-Dec-03 10:00N 35°04' E 139°42'815.8
2017-Dec-03 09:30N 35°11' E 139°46'611.3
2017-Dec-03 09:00N 35°17' E 139°45'612.7
2017-Dec-03 08:30N 35°23' E 139°42'816.0
2017-Dec-03 08:00N 35°28' E 139°49'612.9
2017-Dec-03 07:30N 35°35' E 139°48'2 3.5
2017-Dec-03 07:01N 35°36' E 139°46'0 0.0
2017-Dec-03 06:28N 35°36' E 139°46'0 0.0
2017-Dec-03 05:58N 35°36' E 139°46'0 0.0
2017-Dec-03 05:28N 35°36' E 139°46'0 0.0
2017-Dec-03 04:55N 35°36' E 139°46'0 0.0
2017-Dec-03 04:25N 35°36' E 139°46'0 0.0
2017-Dec-03 03:55N 35°36' E 139°46'0 0.0
2017-Dec-03 03:25N 35°36' E 139°46'0 0.0
2017-Dec-03 02:55N 35°36' E 139°46'0 0.0
2017-Dec-03 02:19N 35°36' E 139°46'0 0.0
2017-Dec-03 01:52N 35°36' E 139°46'0 0.0
2017-Dec-03 01:25N 35°36' E 139°46'0 0.0
2017-Dec-03 00:58N 35°36' E 139°46'0 0.0
2017-Dec-03 00:28N 35°36' E 139°46'0 0.0
2017-Dec-02 23:58N 35°36' E 139°46'0 0.0
2017-Dec-02 23:28N 35°36' E 139°46'0 0.0
2017-Dec-02 23:01N 35°36' E 139°46'1 1.7
2017-Dec-02 22:31N 35°35' E 139°47'510.0
2017-Dec-02 22:00N 35°32' E 139°52'713.4
2017-Dec-02 21:31N 35°26' E 139°48'612.7
2017-Dec-02 21:01N 35°21' E 139°45'611.8
2017-Dec-02 20:31N 35°15' E 139°47'611.1
2017-Dec-02 20:01N 35°09' E 139°47'4 7.4
2017-Dec-02 19:30N 35°06' E 139°46'612.0
2017-Dec-02 19:00N 35°00' E 139°43'612.3
2017-Dec-02 18:30N 34°54' E 139°42'612.7
2017-Dec-02 18:00N 34°49' E 139°46'612.7
2017-Dec-02 17:30N 34°46' E 139°53'713.0
2017-Dec-02 16:58N 34°45' E 140°02'713.1
2017-Dec-02 16:24N 34°48' E 140°10'615.5
2017-Dec-02 16:00N 34°50' E 140°17'815.9
2017-Dec-02 15:30N 34°52' E 140°26'  
Track history (hours):
 
Tides and Currents Weather Stations Pressure Air Temp Water Temp Dewpoint Dewpoint Depression Visibility Wind Speed Wind Dir Waves Ship Positions

Nyk Diana

Last reported at 2017-Dec-09 14:29 UTC. Time now 2017-Dec-17 17:22 UTC.
Position N 35°16' E 140°44'.
Warning: this ship's position is 8 days out of date.

Length 294 m; draft 10.5 m.

Type: Ship. MMSI: 372319000.

Date/timePositionNaut miles runAvg speedWind from/ knotsBaromVisibWave heightAir tempDewpointWater temp
2017-Dec-09 14:29N 35°16' E 140°44'1621.7
2017-Dec-09 13:45N 35°04' E 140°31'623.1
2017-Dec-09 13:30N 35°01' E 140°25'1222.7
2017-Dec-09 12:58N 34°55' E 140°12'1020.9
2017-Dec-09 12:30N 34°51' E 140°01'1020.8
2017-Dec-09 12:01N 34°50' E 139°49'1020.5
2017-Dec-09 11:30N 34°58' E 139°42'918.8
2017-Dec-09 11:00N 35°07' E 139°45'612.1
2017-Dec-09 10:30N 35°13' E 139°46'612.1
2017-Dec-09 10:01N 35°19' E 139°43'611.8
2017-Dec-09 09:30N 35°25' E 139°43'715.0
2017-Dec-09 09:01N 35°29' E 139°51'612.7
2017-Dec-09 08:30N 35°35' E 139°47'1 2.3
2017-Dec-09 08:00N 35°36' E 139°46'0 0.0
2017-Dec-09 07:20N 35°36' E 139°46'0 0.0
2017-Dec-09 05:14N 35°36' E 139°46'0 0.0
2017-Dec-09 04:50N 35°36' E 139°46'0 0.0
2017-Dec-09 04:26N 35°36' E 139°46'0 0.0
2017-Dec-09 03:59N 35°36' E 139°46'0 0.0
2017-Dec-09 03:29N 35°36' E 139°46'0 0.0
2017-Dec-09 02:59N 35°36' E 139°46'0 0.0
2017-Dec-09 02:29N 35°36' E 139°46'0 0.0
2017-Dec-09 01:56N 35°36' E 139°46'0 0.0
2017-Dec-09 01:29N 35°36' E 139°46'0 0.0
2017-Dec-09 00:53N 35°36' E 139°46'0 0.0
2017-Dec-09 00:20N 35°36' E 139°46'0 0.0
2017-Dec-08 23:56N 35°36' E 139°46'0 0.0
2017-Dec-08 23:26N 35°36' E 139°46'0 0.0
2017-Dec-08 22:59N 35°36' E 139°46'0 0.0
2017-Dec-08 22:29N 35°36' E 139°46'2 3.9
2017-Dec-08 22:00N 35°35' E 139°48'510.8
2017-Dec-08 21:30N 35°31' E 139°53'613.0
2017-Dec-08 21:01N 35°26' E 139°48'612.8
2017-Dec-08 20:30N 35°20' E 139°44'612.3
2017-Dec-08 20:01N 35°14' E 139°47'510.8
2017-Dec-08 19:30N 35°09' E 139°46'5 9.7
2017-Dec-08 19:01N 35°04' E 139°43'815.3
2017-Dec-08 18:31N 34°57' E 139°40'815.9
2017-Dec-08 18:00N 34°49' E 139°38'918.1
2017-Dec-08 17:30N 34°40' E 139°37'1019.2
2017-Dec-08 17:00N 34°37' E 139°26'1020.5
2017-Dec-08 16:30N 34°34' E 139°14'1020.2
2017-Dec-08 16:00N 34°30' E 139°03'1019.4
2017-Dec-08 15:30N 34°28' E 138°51'1019.0
2017-Dec-08 14:59N 34°28' E 138°39'1019.3
2017-Dec-08 14:29N 34°28' E 138°28'1019.6
2017-Dec-08 13:59N 34°28' E 138°16'919.2
2017-Dec-08 13:30N 34°28' E 138°04'1019.2
2017-Dec-08 13:00N 34°28' E 137°53'1019.2
2017-Dec-08 12:30N 34°28' E 137°41'1018.7
2017-Dec-08 11:58N 34°29' E 137°29'919.0
2017-Dec-08 11:30N 34°29' E 137°18'918.0
2017-Dec-08 11:00N 34°29' E 137°07'612.3
2017-Dec-08 10:30N 34°33' E 137°01'713.1
2017-Dec-08 10:00N 34°37' E 136°55'1019.5
2017-Dec-08 09:30N 34°44' E 136°47'919.0
2017-Dec-08 09:01N 34°54' E 136°46'714.9
2017-Dec-08 08:30N 35°00' E 136°50'1 2.7
2017-Dec-08 08:00N 35°02' E 136°49'0 0.0
2017-Dec-08 07:26N 35°02' E 136°49'0 0.0
2017-Dec-08 06:56N 35°02' E 136°49'0 0.0
2017-Dec-08 06:26N 35°02' E 136°49'0 0.0
2017-Dec-08 05:56N 35°02' E 136°49'0 0.0
2017-Dec-08 05:26N 35°02' E 136°49'0 0.0
2017-Dec-08 04:56N 35°02' E 136°49'0 0.0
2017-Dec-08 04:26N 35°02' E 136°49'0 0.0
2017-Dec-08 03:56N 35°02' E 136°49'0 0.0
2017-Dec-08 03:26N 35°02' E 136°49'0 0.0
2017-Dec-08 02:59N 35°02' E 136°49'0 0.0
2017-Dec-08 02:29N 35°02' E 136°49'0 0.0
2017-Dec-08 01:50N 35°02' E 136°49'0 0.0
2017-Dec-08 01:26N 35°02' E 136°49'0 0.0
2017-Dec-08 00:56N 35°02' E 136°49'0 0.0
2017-Dec-08 00:29N 35°02' E 136°49'0 0.0
2017-Dec-07 23:56N 35°02' E 136°49'0 0.0
2017-Dec-07 23:14N 35°02' E 136°49'0 0.0
2017-Dec-07 22:56N 35°02' E 136°49'0 0.2
2017-Dec-07 22:30N 35°02' E 136°50'3 6.2
2017-Dec-07 22:00N 34°59' E 136°48'611.8
2017-Dec-07 21:30N 34°54' E 136°44'0 0.2
2017-Dec-07 21:00N 34°54' E 136°44'0 0.0
2017-Dec-07 20:30N 34°54' E 136°44'0 0.0
2017-Dec-07 20:00N 34°54' E 136°44'0 0.1
2017-Dec-07 19:30N 34°54' E 136°44'0 0.1
2017-Dec-07 19:00N 34°54' E 136°44'0 0.1
2017-Dec-07 18:30N 34°54' E 136°44'0 0.0
2017-Dec-07 18:00N 34°54' E 136°44'0 0.0
2017-Dec-07 17:30N 34°54' E 136°44'0 0.0
2017-Dec-07 17:01N 34°54' E 136°44'0 0.0
2017-Dec-07 16:30N 34°54' E 136°44'0 0.0
2017-Dec-07 16:00N 34°54' E 136°44'0 0.1
2017-Dec-07 15:30N 34°54' E 136°44'0 0.0
2017-Dec-07 15:00N 34°54' E 136°44'0 0.0
2017-Dec-07 14:30N 34°54' E 136°44'0 0.0
2017-Dec-07 14:01N 34°54' E 136°44'0 0.0
2017-Dec-07 13:30N 34°54' E 136°44'0 0.1
2017-Dec-07 13:00N 34°54' E 136°44'0 0.2
2017-Dec-07 12:30N 34°54' E 136°44'0 0.2
2017-Dec-07 12:00N 34°54' E 136°44'0 0.2
2017-Dec-07 11:30N 34°54' E 136°44'0 0.1
2017-Dec-07 11:00N 34°54' E 136°44'0 0.1
2017-Dec-07 10:30N 34°54' E 136°44'0 0.0
2017-Dec-07 10:00N 34°54' E 136°44'0 0.1
2017-Dec-07 09:30N 34°54' E 136°44'0 0.1
2017-Dec-07 09:00N 34°54' E 136°44'0 0.1
2017-Dec-07 08:30N 34°54' E 136°44'0 0.1
2017-Dec-07 08:00N 34°54' E 136°44'0 0.0
2017-Dec-07 07:30N 34°54' E 136°44'0 0.0
2017-Dec-07 07:00N 34°54' E 136°44'0 0.0
2017-Dec-07 06:30N 34°54' E 136°44'0 0.1
2017-Dec-07 06:00N 34°54' E 136°44'0 0.0
2017-Dec-07 05:30N 34°54' E 136°44'0 0.0
2017-Dec-07 05:00N 34°54' E 136°44'0 0.0
2017-Dec-07 04:30N 34°54' E 136°44'0 0.0
2017-Dec-07 04:00N 34°54' E 136°44'0 0.0
2017-Dec-07 03:31N 34°54' E 136°44'0 0.0
2017-Dec-07 03:00N 34°54' E 136°44'0 0.0
2017-Dec-07 02:30N 34°54' E 136°44'0 0.0
2017-Dec-07 02:00N 34°54' E 136°44'0 0.0
2017-Dec-07 01:30N 34°54' E 136°44'0 0.2
2017-Dec-07 01:00N 34°54' E 136°44'2 4.9
2017-Dec-07 00:30N 34°52' E 136°44'612.9
2017-Dec-07 00:00N 34°45' E 136°45'815.5
2017-Dec-06 23:30N 34°40' E 136°52'916.0
2017-Dec-06 22:58N 34°34' E 137°00'613.0
2017-Dec-06 22:30N 34°29' E 137°04'4 6.8
2017-Dec-06 21:57N 34°25' E 137°04'3 5.7
2017-Dec-06 21:28N 34°23' E 137°05'  
2017-Dec-04 08:20N 34°30' E 137°04'411.6
2017-Dec-04 08:00N 34°33' E 137°01'612.8
2017-Dec-04 07:30N 34°37' E 136°55'918.4
2017-Dec-04 07:00N 34°44' E 136°47'918.7
2017-Dec-04 06:30N 34°53' E 136°45'815.6
2017-Dec-04 06:00N 34°60' E 136°49'2 3.3
2017-Dec-04 05:30N 35°02' E 136°49'0 0.0
2017-Dec-04 04:55N 35°02' E 136°49'0 0.0
2017-Dec-04 04:25N 35°02' E 136°49'0 0.0
2017-Dec-04 03:55N 35°02' E 136°49'0 0.0
2017-Dec-04 03:25N 35°02' E 136°49'0 0.0
2017-Dec-04 02:55N 35°02' E 136°49'0 0.0
2017-Dec-04 02:25N 35°02' E 136°49'0 0.0
2017-Dec-04 01:58N 35°02' E 136°49'0 0.0
2017-Dec-04 01:25N 35°02' E 136°49'0 0.0
2017-Dec-04 00:58N 35°02' E 136°49'0 0.0
2017-Dec-04 00:28N 35°02' E 136°49'0 0.0
2017-Dec-03 23:55N 35°02' E 136°49'0 0.0
2017-Dec-03 23:28N 35°02' E 136°49'0 0.0
2017-Dec-03 22:55N 35°02' E 136°49'0 0.0
2017-Dec-03 22:30N 35°02' E 136°49'1 2.3
2017-Dec-03 22:00N 35°01' E 136°50'510.1
2017-Dec-03 21:30N 34°56' E 136°47'816.6
2017-Dec-03 21:00N 34°48' E 136°47'918.0
2017-Dec-03 20:29N 34°40' E 136°53'915.6
2017-Dec-03 19:56N 34°34' E 137°00'510.8
2017-Dec-03 19:30N 34°31' E 137°05'5 8.9
2017-Dec-03 19:00N 34°29' E 137°10'5 9.2
2017-Dec-03 18:30N 34°29' E 137°15'612.0
2017-Dec-03 17:59N 34°29' E 137°23'4015.4
2017-Dec-03 15:24N 34°29' E 138°11'716.4
2017-Dec-03 15:00N 34°29' E 138°19'917.2
2017-Dec-03 14:29N 34°30' E 138°30'917.5
2017-Dec-03 14:00N 34°30' E 138°40'917.6
2017-Dec-03 13:30N 34°30' E 138°51'917.5
2017-Dec-03 13:00N 34°30' E 139°01'917.6
2017-Dec-03 12:29N 34°33' E 139°12'715.4
2017-Dec-03 12:01N 34°36' E 139°20'815.3
2017-Dec-03 11:27N 34°40' E 139°29'818.0
2017-Dec-03 11:00N 34°47' E 139°33'918.6
2017-Dec-03 10:31N 34°55' E 139°38'918.0
2017-Dec-03 10:00N 35°04' E 139°42'815.8
2017-Dec-03 09:30N 35°11' E 139°46'611.3
2017-Dec-03 09:00N 35°17' E 139°45'612.7
2017-Dec-03 08:30N 35°23' E 139°42'816.0
2017-Dec-03 08:00N 35°28' E 139°49'612.9
2017-Dec-03 07:30N 35°35' E 139°48'2 3.5
2017-Dec-03 07:01N 35°36' E 139°46'0 0.0
2017-Dec-03 06:28N 35°36' E 139°46'0 0.0
2017-Dec-03 05:58N 35°36' E 139°46'0 0.0
2017-Dec-03 05:28N 35°36' E 139°46'0 0.0
2017-Dec-03 04:55N 35°36' E 139°46'0 0.0
2017-Dec-03 04:25N 35°36' E 139°46'0 0.0
2017-Dec-03 03:55N 35°36' E 139°46'0 0.0
2017-Dec-03 03:25N 35°36' E 139°46'0 0.0
2017-Dec-03 02:55N 35°36' E 139°46'0 0.0
2017-Dec-03 02:19N 35°36' E 139°46'0 0.0
2017-Dec-03 01:52N 35°36' E 139°46'0 0.0
2017-Dec-03 01:25N 35°36' E 139°46'0 0.0
2017-Dec-03 00:58N 35°36' E 139°46'0 0.0
2017-Dec-03 00:28N 35°36' E 139°46'0 0.0
2017-Dec-02 23:58N 35°36' E 139°46'0 0.0
2017-Dec-02 23:28N 35°36' E 139°46'0 0.0
2017-Dec-02 23:01N 35°36' E 139°46'1 1.7
2017-Dec-02 22:31N 35°35' E 139°47'510.0
2017-Dec-02 22:00N 35°32' E 139°52'713.4
2017-Dec-02 21:31N 35°26' E 139°48'612.7
2017-Dec-02 21:01N 35°21' E 139°45'611.8
2017-Dec-02 20:31N 35°15' E 139°47'611.1
2017-Dec-02 20:01N 35°09' E 139°47'4 7.4
2017-Dec-02 19:30N 35°06' E 139°46'612.0
2017-Dec-02 19:00N 35°00' E 139°43'612.3
2017-Dec-02 18:30N 34°54' E 139°42'612.7
2017-Dec-02 18:00N 34°49' E 139°46'612.7
2017-Dec-02 17:30N 34°46' E 139°53'713.0
2017-Dec-02 16:58N 34°45' E 140°02'713.1
2017-Dec-02 16:24N 34°48' E 140°10'615.5
2017-Dec-02 16:00N 34°50' E 140°17'815.9
2017-Dec-02 15:30N 34°52' E 140°26'  

Dump ship's entire track history